createdAt,value
2023-05-19T00:01:45.216Z,68.55
2023-05-19T00:04:15.907Z,68.47
2023-05-19T00:06:52.147Z,68.49
2023-05-19T00:09:22.108Z,68.49
2023-05-19T00:11:51.523Z,68.50
2023-05-19T00:14:21.145Z,68.52
2023-05-19T00:16:50.655Z,68.52
2023-05-19T00:19:20.142Z,68.51
2023-05-19T00:21:50.034Z,68.50
2023-05-19T00:24:19.305Z,68.40
2023-05-19T00:26:48.700Z,68.40
2023-05-19T00:29:20.659Z,68.37
2023-05-19T00:31:49.980Z,68.31
2023-05-19T00:34:19.324Z,68.42
2023-05-19T00:36:48.704Z,68.41
2023-05-19T00:39:18.022Z,68.41
2023-05-19T00:41:47.356Z,68.29
2023-05-19T00:44:16.685Z,68.27
2023-05-19T00:46:45.839Z,68.24
2023-05-19T00:49:15.106Z,68.27
2023-05-19T00:51:44.783Z,68.36
2023-05-19T00:54:14.352Z,68.40
2023-05-19T00:56:43.969Z,68.50
2023-05-19T00:59:13.444Z,68.48
2023-05-19T01:01:42.686Z,68.22
2023-05-19T01:04:12.662Z,68.15
2023-05-19T01:06:43.050Z,68.09
2023-05-19T01:09:13.336Z,68.01
2023-05-19T01:11:42.676Z,67.91
2023-05-19T01:14:12.068Z,67.88
2023-05-19T01:17:13.184Z,68.13
2023-05-19T01:20:03.459Z,68.42
2023-05-19T01:22:56.223Z,68.71
2023-05-19T01:25:49.814Z,68.98
2023-05-19T01:28:52.802Z,68.80
2023-05-19T01:31:26.252Z,68.45
2023-05-19T01:33:56.474Z,67.93
2023-05-19T01:36:27.860Z,67.29
2023-05-19T01:39:00.873Z,67.08
2023-05-19T01:41:33.723Z,67.22
2023-05-19T01:44:03.748Z,67.37
2023-05-19T01:46:33.060Z,67.36
2023-05-19T01:49:02.863Z,67.72
2023-05-19T01:51:33.029Z,67.86
2023-05-19T01:54:02.507Z,67.89
2023-05-19T01:57:09.034Z,67.64
2023-05-19T01:59:56.342Z,67.05
2023-05-19T02:03:03.315Z,66.60
2023-05-19T02:05:43.054Z,66.58
2023-05-19T02:08:53.064Z,66.74
2023-05-19T02:11:39.098Z,67.10
2023-05-19T02:14:31.562Z,67.51
2023-05-19T02:17:02.969Z,67.16
2023-05-19T02:19:36.561Z,64.58
2023-05-19T02:22:06.798Z,62.01
2023-05-19T02:24:38.149Z,60.15
2023-05-19T02:27:08.064Z,57.71
2023-05-19T02:29:37.961Z,57.17
2023-05-19T02:32:08.576Z,54.12
2023-05-19T02:34:38.397Z,54.64
2023-05-19T02:37:09.231Z,53.46
2023-05-19T02:39:38.957Z,51.78
2023-05-19T02:42:08.654Z,50.72
2023-05-19T02:44:38.541Z,49.90
2023-05-19T02:47:08.019Z,50.28
2023-05-19T02:49:37.274Z,49.14
2023-05-19T02:52:08.099Z,49.08
2023-05-19T02:54:37.651Z,49.43
2023-05-19T02:57:08.166Z,49.16
2023-05-19T02:59:37.998Z,48.38
2023-05-19T03:02:07.807Z,48.70
2023-05-19T03:04:42.967Z,48.78
2023-05-19T03:07:14.606Z,48.84
2023-05-19T03:09:44.174Z,49.51
2023-05-19T03:12:13.698Z,48.84
2023-05-19T03:14:43.717Z,47.39
2023-05-19T03:17:13.753Z,47.01
2023-05-19T03:19:43.591Z,47.53
2023-05-19T03:22:13.062Z,47.77
2023-05-19T03:24:42.691Z,46.31
2023-05-19T03:27:13.167Z,46.44
2023-05-19T03:29:42.588Z,46.67
2023-05-19T03:32:12.176Z,47.20
2023-05-19T03:34:41.969Z,45.50
2023-05-19T03:37:12.219Z,44.81
2023-05-19T03:39:47.506Z,46.47
2023-05-19T03:42:17.474Z,46.31
2023-05-19T03:44:47.094Z,47.31
2023-05-19T03:47:16.798Z,48.05
2023-05-19T03:49:46.331Z,46.22
2023-05-19T03:52:15.813Z,47.11
2023-05-19T03:54:46.332Z,47.13
2023-05-19T03:57:17.306Z,42.89
2023-05-19T03:59:47.462Z,43.99
2023-05-19T04:02:20.907Z,44.12
2023-05-19T04:04:51.964Z,45.29
2023-05-19T04:07:21.460Z,47.44
2023-05-19T04:09:52.332Z,45.29
2023-05-19T04:12:21.626Z,44.37
2023-05-19T04:14:51.288Z,43.32
2023-05-19T04:17:21.240Z,42.85
2023-05-19T04:19:50.805Z,43.14
2023-05-19T04:22:20.348Z,46.13
2023-05-19T04:24:50.463Z,44.84
2023-05-19T04:27:20.301Z,46.24
2023-05-19T04:29:51.089Z,46.64
2023-05-19T04:32:20.707Z,46.20
2023-05-19T04:34:51.023Z,45.76
2023-05-19T04:37:21.293Z,46.15
2023-05-19T04:39:50.964Z,45.40
2023-05-19T04:42:20.945Z,45.65
2023-05-19T04:44:53.237Z,47.41
2023-05-19T04:47:22.785Z,46.59
2023-05-19T04:49:56.913Z,45.20
2023-05-19T04:52:26.419Z,46.04
2023-05-19T04:54:55.901Z,45.13
2023-05-19T04:57:25.425Z,45.09
2023-05-19T05:00:01.094Z,45.56
2023-05-19T05:02:30.677Z,45.44
2023-05-19T05:05:00.334Z,45.42
2023-05-19T05:07:31.650Z,44.12
2023-05-19T05:10:01.978Z,44.43
2023-05-19T05:12:31.664Z,44.46
2023-05-19T05:15:01.611Z,44.45
2023-05-19T05:17:31.747Z,44.70
2023-05-19T05:20:01.620Z,43.84
2023-05-19T05:22:31.273Z,44.45
2023-05-19T05:25:01.807Z,44.98
2023-05-19T05:27:31.268Z,44.09
2023-05-19T05:30:00.679Z,43.33
2023-05-19T05:32:30.781Z,44.69
2023-05-19T05:35:00.752Z,44.81
2023-05-19T05:37:30.876Z,43.79
2023-05-19T05:40:00.514Z,43.87
2023-05-19T05:42:30.021Z,44.51
2023-05-19T05:44:59.730Z,42.43
2023-05-19T05:47:29.640Z,41.69
2023-05-19T05:49:59.531Z,42.12
2023-05-19T05:52:32.733Z,43.59
2023-05-19T05:55:02.894Z,44.50
2023-05-19T05:57:32.673Z,45.53
2023-05-19T06:00:02.557Z,44.77
2023-05-19T06:02:32.401Z,44.57
2023-05-19T06:05:02.216Z,43.87
2023-05-19T06:07:32.215Z,43.59
2023-05-19T06:10:01.797Z,44.33
2023-05-19T06:12:32.944Z,44.54
2023-05-19T06:15:03.549Z,43.57
2023-05-19T06:17:33.164Z,43.08
2023-05-19T06:20:03.219Z,44.72
2023-05-19T06:22:32.903Z,44.88
2023-05-19T06:25:02.449Z,45.25
2023-05-19T06:27:34.059Z,45.20
2023-05-19T06:30:04.529Z,43.80
2023-05-19T06:32:34.204Z,42.18
2023-05-19T06:35:04.249Z,43.16
2023-05-19T06:37:34.081Z,43.22
2023-05-19T06:40:03.693Z,42.27
2023-05-19T06:42:33.315Z,43.33
2023-05-19T06:45:02.761Z,43.13
2023-05-19T06:47:32.703Z,43.54
2023-05-19T06:50:02.227Z,43.53
2023-05-19T06:52:31.521Z,42.21
2023-05-19T06:55:01.019Z,43.66
2023-05-19T06:57:30.652Z,42.17
2023-05-19T07:00:00.180Z,41.52
2023-05-19T07:02:29.858Z,42.61
2023-05-19T07:04:59.450Z,41.92
2023-05-19T07:07:28.896Z,43.25
2023-05-19T07:09:58.687Z,41.28
2023-05-19T07:12:28.362Z,39.88
2023-05-19T07:14:57.958Z,38.82
2023-05-19T07:17:27.680Z,39.29
2023-05-19T07:19:57.475Z,40.82
2023-05-19T07:22:27.031Z,39.48
2023-05-19T07:24:58.482Z,39.79
2023-05-19T07:27:27.955Z,41.01
2023-05-19T07:29:57.590Z,41.46
2023-05-19T07:32:27.981Z,42.65
2023-05-19T07:34:57.581Z,38.29
2023-05-19T07:37:27.862Z,39.37
2023-05-19T07:39:58.092Z,38.29
2023-05-19T07:42:27.699Z,38.17
2023-05-19T07:44:57.172Z,37.96
2023-05-19T07:47:26.723Z,37.89
2023-05-19T07:49:56.531Z,38.79
2023-05-19T07:52:26.183Z,39.86
2023-05-19T07:54:55.898Z,39.62
2023-05-19T07:57:28.645Z,40.11
2023-05-19T07:59:58.324Z,39.15
2023-05-19T08:02:28.113Z,39.32
2023-05-19T08:04:57.864Z,38.47
2023-05-19T08:07:27.727Z,38.60
2023-05-19T08:09:57.609Z,39.36
2023-05-19T08:12:27.075Z,41.22
2023-05-19T08:14:57.782Z,41.77
2023-05-19T08:17:28.492Z,42.30
2023-05-19T08:19:58.013Z,41.72
2023-05-19T08:22:27.644Z,41.68
2023-05-19T08:24:57.148Z,42.34
2023-05-19T08:27:26.831Z,41.10
2023-05-19T08:29:57.018Z,42.19
2023-05-19T08:32:26.699Z,41.96
2023-05-19T08:34:56.415Z,41.50
2023-05-19T08:37:26.643Z,43.12
2023-05-19T08:39:57.058Z,44.35
2023-05-19T08:42:26.731Z,43.48
2023-05-19T08:44:56.405Z,44.38
2023-05-19T08:47:26.904Z,43.57
2023-05-19T08:50:12.479Z,43.03
2023-05-19T08:53:32.556Z,44.00
2023-05-19T08:56:15.643Z,44.39
2023-05-19T08:58:47.438Z,45.96
2023-05-19T09:01:20.699Z,45.80
2023-05-19T09:03:51.037Z,45.82
2023-05-19T09:06:20.958Z,46.55
2023-05-19T09:08:50.483Z,47.69
2023-05-19T09:11:20.234Z,48.73
2023-05-19T09:13:50.987Z,48.67
2023-05-19T09:16:20.455Z,49.32
2023-05-19T09:19:00.390Z,49.53
2023-05-19T09:21:34.438Z,50.47
2023-05-19T09:24:08.392Z,50.74
2023-05-19T09:26:44.480Z,51.08
2023-05-19T09:29:19.442Z,50.95
2023-05-19T09:31:57.553Z,50.88
2023-05-19T09:34:28.241Z,51.69
2023-05-19T09:36:59.360Z,51.37
2023-05-19T09:39:30.308Z,50.81
2023-05-19T09:41:59.984Z,50.02
2023-05-19T09:44:34.047Z,50.08
2023-05-19T09:47:05.561Z,50.59
2023-05-19T09:49:35.359Z,51.15
2023-05-19T09:52:06.062Z,51.13
2023-05-19T09:54:36.750Z,51.97
2023-05-19T09:57:09.037Z,51.77
2023-05-19T09:59:40.430Z,52.25
2023-05-19T10:02:21.627Z,53.35
2023-05-19T10:04:54.453Z,53.10
2023-05-19T10:07:26.350Z,53.77
2023-05-19T10:09:58.593Z,54.08
2023-05-19T10:12:29.800Z,53.68
2023-05-19T10:15:00.979Z,53.86
2023-05-19T10:17:31.367Z,54.16
2023-05-19T10:20:02.505Z,53.89
2023-05-19T10:22:32.207Z,53.44
2023-05-19T10:25:01.807Z,54.53
2023-05-19T10:27:34.104Z,54.50
2023-05-19T10:30:15.669Z,54.99
2023-05-19T10:32:49.939Z,54.98
2023-05-19T10:35:39.739Z,54.90
2023-05-19T10:38:22.663Z,57.32
2023-05-19T10:41:15.480Z,59.04
2023-05-19T10:43:50.711Z,60.57
2023-05-19T10:46:20.050Z,61.33
2023-05-19T10:48:49.387Z,62.39
2023-05-19T10:51:18.709Z,63.30
2023-05-19T10:53:48.016Z,64.03
2023-05-19T10:56:37.774Z,64.74
2023-05-19T10:59:07.173Z,65.28
2023-05-19T11:01:39.704Z,65.70
2023-05-19T11:04:16.792Z,66.14
2023-05-19T11:06:53.808Z,66.55
2023-05-19T11:09:37.897Z,66.91
2023-05-19T11:12:12.033Z,67.29
2023-05-19T11:14:42.618Z,67.51
2023-05-19T11:17:17.609Z,67.74
2023-05-19T11:20:01.483Z,67.90
2023-05-19T11:22:30.711Z,67.95
2023-05-19T11:24:59.969Z,68.07
2023-05-19T11:27:34.178Z,68.09
2023-05-19T11:30:06.752Z,68.20
2023-05-19T11:32:40.635Z,68.25
2023-05-19T11:35:11.382Z,68.34
2023-05-19T11:37:42.727Z,68.37
2023-05-19T11:40:12.292Z,68.36
2023-05-19T11:42:42.274Z,68.08
2023-05-19T11:45:11.991Z,67.45
2023-05-19T11:47:59.723Z,66.99
2023-05-19T11:50:30.624Z,65.52
2023-05-19T11:53:02.704Z,64.90
2023-05-19T11:55:32.758Z,64.49
2023-05-19T11:58:06.276Z,64.39
2023-05-19T12:00:41.837Z,63.91
2023-05-19T12:03:11.717Z,63.50
2023-05-19T12:05:48.993Z,63.43
2023-05-19T12:08:22.772Z,63.57
2023-05-19T12:10:53.806Z,63.63
2023-05-19T12:13:24.915Z,63.57
2023-05-19T12:15:54.796Z,63.41
2023-05-19T12:18:24.049Z,63.67
2023-05-19T12:20:53.424Z,63.78
2023-05-19T12:23:23.149Z,63.81
2023-05-19T12:25:52.965Z,64.03
2023-05-19T12:28:22.412Z,64.21
2023-05-19T12:30:53.830Z,64.30
2023-05-19T12:33:24.184Z,64.34
2023-05-19T12:35:53.578Z,64.38
2023-05-19T12:38:23.356Z,64.44
2023-05-19T12:40:52.792Z,64.49
2023-05-19T12:43:25.584Z,64.53
2023-05-19T12:45:55.465Z,64.57
2023-05-19T12:48:25.035Z,64.72
2023-05-19T12:50:56.734Z,64.84
2023-05-19T12:53:29.413Z,64.89
2023-05-19T12:55:58.643Z,65.12
2023-05-19T12:58:27.904Z,65.51
2023-05-19T13:01:02.259Z,65.87
2023-05-19T13:03:31.619Z,66.29
2023-05-19T13:06:01.051Z,66.74
2023-05-19T13:08:30.952Z,66.91
2023-05-19T13:11:00.135Z,66.75
2023-05-19T13:13:29.596Z,66.38
2023-05-19T13:15:58.881Z,66.07
2023-05-19T13:18:36.854Z,65.98
2023-05-19T13:21:06.987Z,66.14
2023-05-19T13:23:36.092Z,66.36
2023-05-19T13:26:06.263Z,66.52
2023-05-19T13:28:36.169Z,66.75
2023-05-19T13:31:05.456Z,66.65
2023-05-19T13:33:34.694Z,66.68
2023-05-19T13:36:03.871Z,66.85
2023-05-19T13:38:32.986Z,66.89
2023-05-19T13:41:02.359Z,66.67
2023-05-19T13:43:31.486Z,66.68
2023-05-19T13:46:00.812Z,66.75
2023-05-19T13:48:30.062Z,66.81
2023-05-19T13:50:59.404Z,67.04
2023-05-19T13:53:28.748Z,67.05
2023-05-19T13:55:57.964Z,67.11
2023-05-19T13:58:27.907Z,67.24
2023-05-19T14:01:04.098Z,67.34
2023-05-19T14:03:44.727Z,67.49
2023-05-19T14:06:13.958Z,67.50
2023-05-19T14:08:43.611Z,67.70
2023-05-19T14:11:32.393Z,67.93
2023-05-19T14:14:02.767Z,68.23
2023-05-19T14:16:35.150Z,68.29
2023-05-19T14:19:05.172Z,68.31
2023-05-19T14:21:34.582Z,68.44
2023-05-19T14:24:03.826Z,68.35
2023-05-19T14:26:33.249Z,68.10
2023-05-19T14:29:03.060Z,67.55
2023-05-19T14:31:32.784Z,67.02
2023-05-19T14:34:02.440Z,66.68
2023-05-19T14:36:32.440Z,66.62
2023-05-19T14:39:01.752Z,66.76
2023-05-19T14:41:30.941Z,66.96
2023-05-19T14:44:00.537Z,66.87
2023-05-19T14:46:29.737Z,66.39
2023-05-19T14:48:58.986Z,65.89
2023-05-19T14:51:28.297Z,65.72
2023-05-19T14:53:57.450Z,65.60
2023-05-19T14:56:26.624Z,65.44
2023-05-19T14:58:55.882Z,65.29
2023-05-19T15:01:25.226Z,65.25
2023-05-19T15:03:54.658Z,65.26
2023-05-19T15:06:24.800Z,65.21
2023-05-19T15:08:54.170Z,65.40
2023-05-19T15:11:23.715Z,65.48
2023-05-19T15:13:53.234Z,65.56
2023-05-19T15:16:22.564Z,65.31
2023-05-19T15:18:52.997Z,65.15
2023-05-19T15:21:22.431Z,64.90
2023-05-19T15:23:51.615Z,65.01
2023-05-19T15:26:20.913Z,65.24
2023-05-19T15:28:50.219Z,65.39
2023-05-19T15:31:19.799Z,65.37
2023-05-19T15:33:49.242Z,65.38
2023-05-19T15:36:18.580Z,65.23
2023-05-19T15:38:47.814Z,65.09
2023-05-19T15:41:17.129Z,64.90
2023-05-19T15:43:47.678Z,64.79
2023-05-19T15:46:17.493Z,64.84
2023-05-19T15:48:46.769Z,64.79
2023-05-19T15:51:16.147Z,64.86
2023-05-19T15:53:45.201Z,64.89
2023-05-19T15:56:17.770Z,64.83
2023-05-19T15:58:47.492Z,64.63
2023-05-19T16:01:18.068Z,64.49
2023-05-19T16:03:47.791Z,64.41
2023-05-19T16:06:17.181Z,64.49
2023-05-19T16:08:46.306Z,64.48
2023-05-19T16:11:15.866Z,64.53
2023-05-19T16:13:45.047Z,64.50
2023-05-19T16:16:14.339Z,64.53
2023-05-19T16:18:45.393Z,64.69
2023-05-19T16:21:14.653Z,64.83
2023-05-19T16:23:43.954Z,64.99
2023-05-19T16:26:13.138Z,65.13
2023-05-19T16:28:42.381Z,65.28
2023-05-19T16:31:11.739Z,65.35
2023-05-19T16:33:41.238Z,65.32
2023-05-19T16:36:10.535Z,65.45
2023-05-19T16:38:39.691Z,65.49
2023-05-19T16:41:12.768Z,65.56
2023-05-19T16:43:42.037Z,65.60
2023-05-19T16:46:13.266Z,65.52
2023-05-19T16:48:42.579Z,65.41
2023-05-19T16:51:11.878Z,65.30
2023-05-19T16:53:41.258Z,65.41
2023-05-19T16:56:10.573Z,65.50
2023-05-19T16:58:39.830Z,65.63
2023-05-19T17:01:11.094Z,65.84
2023-05-19T17:03:40.438Z,66.01
2023-05-19T17:06:09.692Z,66.12
2023-05-19T17:08:39.002Z,66.23
2023-05-19T17:11:08.328Z,66.26
2023-05-19T17:13:38.552Z,66.34
2023-05-19T17:16:10.559Z,66.32
2023-05-19T17:18:39.765Z,66.29
2023-05-19T17:21:08.831Z,66.27
2023-05-19T17:23:39.115Z,66.10
2023-05-19T17:26:08.469Z,66.00
2023-05-19T17:28:37.804Z,65.89
2023-05-19T17:31:17.095Z,65.88
2023-05-19T17:33:46.272Z,65.92
2023-05-19T17:36:16.407Z,65.75
2023-05-19T17:38:45.688Z,65.59
2023-05-19T17:41:15.400Z,65.56
2023-05-19T17:43:45.459Z,65.69
2023-05-19T17:46:14.588Z,65.70
2023-05-19T17:48:43.911Z,65.71
2023-05-19T17:51:13.451Z,65.68
2023-05-19T17:53:43.696Z,65.76
2023-05-19T17:56:14.197Z,65.79
2023-05-19T17:58:43.740Z,65.88
2023-05-19T18:01:13.052Z,65.81
2023-05-19T18:03:42.675Z,65.87
2023-05-19T18:06:13.575Z,66.00
2023-05-19T18:08:44.023Z,66.02
2023-05-19T18:11:17.181Z,65.75
2023-05-19T18:13:47.531Z,65.58
2023-05-19T18:16:16.713Z,65.71
2023-05-19T18:18:51.368Z,65.89
2023-05-19T18:21:21.239Z,66.02
2023-05-19T18:23:50.396Z,66.18
2023-05-19T18:26:19.634Z,66.34
2023-05-19T18:28:48.940Z,66.50
2023-05-19T18:31:20.784Z,66.44
2023-05-19T18:33:50.585Z,66.49
2023-05-19T18:36:20.319Z,66.60
2023-05-19T18:38:49.568Z,66.79
2023-05-19T18:41:18.923Z,67.07
2023-05-19T18:43:48.247Z,67.10
2023-05-19T18:46:19.854Z,67.04
2023-05-19T18:48:51.107Z,67.07
2023-05-19T18:51:21.544Z,67.21
2023-05-19T18:53:51.409Z,67.20
2023-05-19T18:56:27.832Z,67.20
2023-05-19T18:58:57.100Z,67.27
2023-05-19T19:01:26.394Z,67.45
2023-05-19T19:03:55.776Z,67.68
2023-05-19T19:06:24.992Z,67.74
2023-05-19T19:08:54.286Z,67.59
2023-05-19T19:11:23.766Z,67.63
2023-05-19T19:13:56.670Z,67.55
2023-05-19T19:16:26.023Z,67.26
2023-05-19T19:18:55.275Z,67.03
2023-05-19T19:21:25.475Z,67.07
2023-05-19T19:23:56.122Z,67.17
2023-05-19T19:26:30.133Z,67.25
2023-05-19T19:29:00.169Z,67.37
2023-05-19T19:31:32.026Z,67.16
2023-05-19T19:34:04.857Z,67.05
2023-05-19T19:36:33.986Z,66.88
2023-05-19T19:39:03.314Z,67.01
2023-05-19T19:41:34.450Z,67.17
2023-05-19T19:44:03.780Z,67.41
2023-05-19T19:46:32.997Z,67.34
2023-05-19T19:49:02.697Z,67.26
2023-05-19T19:51:32.847Z,67.19
2023-05-19T19:54:02.398Z,67.15
2023-05-19T19:56:31.697Z,67.43
2023-05-19T19:59:00.930Z,67.49
2023-05-19T20:01:30.267Z,67.46
2023-05-19T20:03:59.748Z,67.43
2023-05-19T20:06:29.177Z,67.52
2023-05-19T20:08:58.434Z,67.64
2023-05-19T20:11:28.022Z,67.80
2023-05-19T20:13:57.321Z,67.88
2023-05-19T20:16:26.639Z,67.85
2023-05-19T20:18:55.891Z,67.73
2023-05-19T20:21:24.976Z,67.80
2023-05-19T20:23:54.267Z,67.90
2023-05-19T20:26:23.782Z,67.84
2023-05-19T20:28:52.833Z,67.79
2023-05-19T20:31:22.734Z,67.61
2023-05-19T20:33:52.552Z,67.57
2023-05-19T20:36:22.286Z,67.60
2023-05-19T20:38:51.498Z,67.53
2023-05-19T20:41:20.647Z,67.24
2023-05-19T20:43:49.821Z,67.16
2023-05-19T20:46:19.151Z,67.22
2023-05-19T20:48:48.436Z,67.17
2023-05-19T20:51:17.767Z,67.04
2023-05-19T20:53:47.076Z,66.85
2023-05-19T20:56:16.395Z,66.84
2023-05-19T20:58:45.648Z,67.03
2023-05-19T21:01:14.796Z,67.07
2023-05-19T21:03:44.061Z,67.14
2023-05-19T21:06:13.590Z,66.98
2023-05-19T21:08:42.722Z,66.82
2023-05-19T21:11:12.051Z,66.89
2023-05-19T21:13:41.884Z,67.07
2023-05-19T21:16:11.804Z,67.21
2023-05-19T21:18:41.113Z,67.39
2023-05-19T21:21:10.345Z,67.54
2023-05-19T21:23:39.607Z,67.53
2023-05-19T21:26:08.866Z,67.39
2023-05-19T21:28:37.892Z,67.23
2023-05-19T21:31:07.203Z,67.18
2023-05-19T21:33:36.514Z,67.14
2023-05-19T21:36:05.789Z,67.22
2023-05-19T21:38:35.020Z,67.19
2023-05-19T21:41:04.189Z,67.05
2023-05-19T21:43:33.442Z,66.79
2023-05-19T21:46:02.662Z,66.77
2023-05-19T21:48:32.128Z,66.70
2023-05-19T21:51:01.461Z,66.59
2023-05-19T21:53:30.972Z,66.44
2023-05-19T21:56:00.741Z,66.35
2023-05-19T21:58:30.921Z,66.44
2023-05-19T22:01:01.678Z,66.45
2023-05-19T22:03:31.099Z,66.47
2023-05-19T22:06:00.388Z,66.53
2023-05-19T22:08:29.938Z,66.52
2023-05-19T22:10:59.161Z,66.55
2023-05-19T22:13:28.754Z,66.64
2023-05-19T22:15:58.602Z,66.79
2023-05-19T22:18:27.772Z,66.88
2023-05-19T22:20:56.985Z,66.86
2023-05-19T22:23:26.252Z,66.95
2023-05-19T22:25:55.431Z,67.04
2023-05-19T22:28:24.536Z,67.02
2023-05-19T22:30:53.746Z,66.97
2023-05-19T22:33:22.861Z,67.03
2023-05-19T22:35:52.345Z,67.06
2023-05-19T22:38:21.673Z,66.92
2023-05-19T22:40:51.231Z,66.91
2023-05-19T22:43:20.516Z,67.06
2023-05-19T22:45:49.880Z,67.28
2023-05-19T22:48:19.245Z,67.40
2023-05-19T22:50:48.572Z,67.51
2023-05-19T22:53:17.808Z,67.67
2023-05-19T22:55:47.031Z,67.67
2023-05-19T22:58:16.203Z,67.64
2023-05-19T23:00:45.309Z,67.60
2023-05-19T23:03:14.553Z,67.77
2023-05-19T23:05:44.421Z,67.89
2023-05-19T23:08:13.553Z,67.96
2023-05-19T23:10:42.760Z,67.97
2023-05-19T23:13:13.420Z,68.04
2023-05-19T23:15:42.616Z,68.15
2023-05-19T23:18:12.758Z,68.24
2023-05-19T23:20:42.187Z,68.16
2023-05-19T23:23:11.522Z,68.20
2023-05-19T23:25:40.774Z,68.24
2023-05-19T23:28:11.551Z,68.26
2023-05-19T23:30:40.739Z,68.27
2023-05-19T23:33:09.902Z,68.26
2023-05-19T23:35:40.810Z,68.17
2023-05-19T23:38:09.976Z,68.05
2023-05-19T23:40:39.061Z,68.10
2023-05-19T23:43:08.507Z,68.07
2023-05-19T23:45:37.735Z,68.11
2023-05-19T23:48:07.319Z,68.21
2023-05-19T23:50:36.744Z,68.13
2023-05-19T23:53:06.128Z,68.21
2023-05-19T23:55:35.578Z,68.18
2023-05-19T23:58:05.178Z,68.26
